sensor_id;sensor_type;location;lat;lon;timestamp;P1;durP1;ratioP1;P2;durP2;ratioP2
8312;SDS011;4194;43.408;24.626;2023-04-24T00:01:13;8.40;;;4.27;;
8312;SDS011;4194;43.408;24.626;2023-04-24T00:03:40;4.93;;;4.27;;
8312;SDS011;4194;43.408;24.626;2023-04-24T00:06:06;6.30;;;3.57;;
8312;SDS011;4194;43.408;24.626;2023-04-24T00:08:33;5.87;;;3.90;;
8312;SDS011;4194;43.408;24.626;2023-04-24T00:10:59;6.93;;;3.80;;
8312;SDS011;4194;43.408;24.626;2023-04-24T00:13:25;6.30;;;4.10;;
8312;SDS011;4194;43.408;24.626;2023-04-24T00:15:53;8.03;;;3.97;;
8312;SDS011;4194;43.408;24.626;2023-04-24T00:18:19;6.70;;;3.77;;
8312;SDS011;4194;43.408;24.626;2023-04-24T00:20:45;7.50;;;3.80;;
8312;SDS011;4194;43.408;24.626;2023-04-24T00:23:11;5.53;;;3.93;;
8312;SDS011;4194;43.408;24.626;2023-04-24T00:25:37;7.33;;;4.17;;
8312;SDS011;4194;43.408;24.626;2023-04-24T00:28:03;7.13;;;4.33;;
8312;SDS011;4194;43.408;24.626;2023-04-24T00:30:29;5.30;;;3.80;;
8312;SDS011;4194;43.408;24.626;2023-04-24T00:32:55;9.10;;;4.57;;
8312;SDS011;4194;43.408;24.626;2023-04-24T00:35:21;7.30;;;4.30;;
8312;SDS011;4194;43.408;24.626;2023-04-24T00:37:46;6.20;;;4.03;;
8312;SDS011;4194;43.408;24.626;2023-04-24T00:40:12;8.03;;;4.83;;
8312;SDS011;4194;43.408;24.626;2023-04-24T00:42:38;7.20;;;4.37;;
8312;SDS011;4194;43.408;24.626;2023-04-24T00:45:05;10.20;;;4.20;;
8312;SDS011;4194;43.408;24.626;2023-04-24T00:47:32;8.97;;;4.27;;
8312;SDS011;4194;43.408;24.626;2023-04-24T00:50:00;5.00;;;4.00;;
8312;SDS011;4194;43.408;24.626;2023-04-24T00:52:30;7.70;;;4.00;;
8312;SDS011;4194;43.408;24.626;2023-04-24T00:54:57;6.17;;;4.10;;
8312;SDS011;4194;43.408;24.626;2023-04-24T00:57:23;6.57;;;4.17;;
8312;SDS011;4194;43.408;24.626;2023-04-24T00:59:50;4.97;;;4.47;;
8312;SDS011;4194;43.408;24.626;2023-04-24T01:02:16;5.13;;;4.30;;
8312;SDS011;4194;43.408;24.626;2023-04-24T01:04:42;4.87;;;4.17;;
8312;SDS011;4194;43.408;24.626;2023-04-24T01:07:08;7.13;;;4.10;;
8312;SDS011;4194;43.408;24.626;2023-04-24T01:09:36;5.23;;;3.80;;
8312;SDS011;4194;43.408;24.626;2023-04-24T01:12:04;7.57;;;3.83;;
8312;SDS011;4194;43.408;24.626;2023-04-24T01:14:30;6.40;;;4.23;;
8312;SDS011;4194;43.408;24.626;2023-04-24T01:16:56;5.10;;;3.70;;
8312;SDS011;4194;43.408;24.626;2023-04-24T01:19:22;6.93;;;4.07;;
8312;SDS011;4194;43.408;24.626;2023-04-24T01:21:48;20.27;;;5.17;;
8312;SDS011;4194;43.408;24.626;2023-04-24T01:24:18;5.03;;;3.70;;
8312;SDS011;4194;43.408;24.626;2023-04-24T01:26:45;4.53;;;4.00;;
8312;SDS011;4194;43.408;24.626;2023-04-24T01:29:11;7.57;;;4.53;;
8312;SDS011;4194;43.408;24.626;2023-04-24T01:31:38;6.00;;;4.30;;
8312;SDS011;4194;43.408;24.626;2023-04-24T01:34:04;5.53;;;3.90;;
8312;SDS011;4194;43.408;24.626;2023-04-24T01:36:31;5.70;;;4.27;;
8312;SDS011;4194;43.408;24.626;2023-04-24T01:38:58;6.90;;;4.53;;
8312;SDS011;4194;43.408;24.626;2023-04-24T01:41:24;6.07;;;4.07;;
8312;SDS011;4194;43.408;24.626;2023-04-24T01:43:50;6.43;;;3.90;;
8312;SDS011;4194;43.408;24.626;2023-04-24T01:46:16;6.63;;;4.20;;
8312;SDS011;4194;43.408;24.626;2023-04-24T01:48:41;5.60;;;4.33;;
8312;SDS011;4194;43.408;24.626;2023-04-24T01:51:07;7.43;;;4.40;;
8312;SDS011;4194;43.408;24.626;2023-04-24T01:53:33;4.87;;;4.23;;
8312;SDS011;4194;43.408;24.626;2023-04-24T01:55:59;6.33;;;4.87;;
8312;SDS011;4194;43.408;24.626;2023-04-24T01:58:25;8.20;;;4.63;;
8312;SDS011;4194;43.408;24.626;2023-04-24T02:00:52;5.50;;;4.23;;
8312;SDS011;4194;43.408;24.626;2023-04-24T02:03:18;6.27;;;4.87;;
8312;SDS011;4194;43.408;24.626;2023-04-24T02:05:44;6.53;;;4.67;;
8312;SDS011;4194;43.408;24.626;2023-04-24T02:08:10;5.77;;;4.73;;
8312;SDS011;4194;43.408;24.626;2023-04-24T02:10:36;6.63;;;4.30;;
8312;SDS011;4194;43.408;24.626;2023-04-24T02:13:01;5.17;;;4.43;;
8312;SDS011;4194;43.408;24.626;2023-04-24T02:15:27;14.43;;;4.67;;
8312;SDS011;4194;43.408;24.626;2023-04-24T02:17:53;5.47;;;4.80;;
8312;SDS011;4194;43.408;24.626;2023-04-24T02:20:19;11.47;;;4.83;;
8312;SDS011;4194;43.408;24.626;2023-04-24T02:22:44;7.70;;;4.63;;
8312;SDS011;4194;43.408;24.626;2023-04-24T02:25:10;10.67;;;5.00;;
8312;SDS011;4194;43.408;24.626;2023-04-24T02:27:36;7.53;;;4.77;;
8312;SDS011;4194;43.408;24.626;2023-04-24T02:30:01;9.57;;;4.97;;
8312;SDS011;4194;43.408;24.626;2023-04-24T02:32:28;11.97;;;5.10;;
8312;SDS011;4194;43.408;24.626;2023-04-24T02:34:53;7.03;;;4.73;;
8312;SDS011;4194;43.408;24.626;2023-04-24T02:37:19;10.23;;;4.73;;
8312;SDS011;4194;43.408;24.626;2023-04-24T02:39:45;5.70;;;4.80;;
8312;SDS011;4194;43.408;24.626;2023-04-24T02:42:10;7.83;;;4.70;;
8312;SDS011;4194;43.408;24.626;2023-04-24T02:44:36;7.60;;;4.97;;
8312;SDS011;4194;43.408;24.626;2023-04-24T02:47:02;6.40;;;4.27;;
8312;SDS011;4194;43.408;24.626;2023-04-24T02:49:28;9.03;;;5.23;;
8312;SDS011;4194;43.408;24.626;2023-04-24T02:51:54;8.50;;;4.80;;
8312;SDS011;4194;43.408;24.626;2023-04-24T02:54:19;7.87;;;4.60;;
8312;SDS011;4194;43.408;24.626;2023-04-24T02:56:45;5.80;;;4.43;;
8312;SDS011;4194;43.408;24.626;2023-04-24T02:59:11;7.73;;;4.60;;
8312;SDS011;4194;43.408;24.626;2023-04-24T03:01:36;9.73;;;5.30;;
8312;SDS011;4194;43.408;24.626;2023-04-24T03:04:02;9.70;;;4.60;;
8312;SDS011;4194;43.408;24.626;2023-04-24T03:06:28;13.37;;;5.00;;
8312;SDS011;4194;43.408;24.626;2023-04-24T03:08:56;9.63;;;5.20;;
8312;SDS011;4194;43.408;24.626;2023-04-24T03:11:21;6.90;;;4.70;;
8312;SDS011;4194;43.408;24.626;2023-04-24T03:13:47;9.93;;;4.80;;
8312;SDS011;4194;43.408;24.626;2023-04-24T03:16:13;8.93;;;5.67;;
8312;SDS011;4194;43.408;24.626;2023-04-24T03:18:38;7.77;;;4.80;;
8312;SDS011;4194;43.408;24.626;2023-04-24T03:21:04;10.83;;;5.40;;
8312;SDS011;4194;43.408;24.626;2023-04-24T03:23:30;8.97;;;5.20;;
8312;SDS011;4194;43.408;24.626;2023-04-24T03:25:56;10.37;;;5.30;;
8312;SDS011;4194;43.408;24.626;2023-04-24T03:28:21;9.10;;;5.60;;
8312;SDS011;4194;43.408;24.626;2023-04-24T03:30:47;13.77;;;7.00;;
8312;SDS011;4194;43.408;24.626;2023-04-24T03:33:13;17.97;;;11.80;;
8312;SDS011;4194;43.408;24.626;2023-04-24T03:35:39;26.93;;;15.10;;
8312;SDS011;4194;43.408;24.626;2023-04-24T03:38:06;22.20;;;15.77;;
8312;SDS011;4194;43.408;24.626;2023-04-24T03:40:31;18.80;;;13.53;;
8312;SDS011;4194;43.408;24.626;2023-04-24T03:42:58;17.17;;;11.10;;
8312;SDS011;4194;43.408;24.626;2023-04-24T03:45:24;15.90;;;9.73;;
8312;SDS011;4194;43.408;24.626;2023-04-24T03:47:49;19.67;;;8.50;;
8312;SDS011;4194;43.408;24.626;2023-04-24T03:50:15;14.97;;;7.90;;
8312;SDS011;4194;43.408;24.626;2023-04-24T03:52:41;7.67;;;6.80;;
8312;SDS011;4194;43.408;24.626;2023-04-24T03:55:06;14.77;;;7.30;;
8312;SDS011;4194;43.408;24.626;2023-04-24T03:57:32;9.73;;;7.03;;
8312;SDS011;4194;43.408;24.626;2023-04-24T03:59:58;11.80;;;6.90;;
8312;SDS011;4194;43.408;24.626;2023-04-24T04:02:24;11.07;;;6.33;;
8312;SDS011;4194;43.408;24.626;2023-04-24T04:04:50;9.53;;;5.80;;
8312;SDS011;4194;43.408;24.626;2023-04-24T04:07:16;12.90;;;4.90;;
8312;SDS011;4194;43.408;24.626;2023-04-24T04:09:42;8.73;;;6.20;;
8312;SDS011;4194;43.408;24.626;2023-04-24T04:12:07;6.83;;;5.20;;
8312;SDS011;4194;43.408;24.626;2023-04-24T04:14:33;9.43;;;5.30;;
8312;SDS011;4194;43.408;24.626;2023-04-24T04:16:59;8.90;;;4.97;;
8312;SDS011;4194;43.408;24.626;2023-04-24T04:19:25;15.77;;;5.37;;
8312;SDS011;4194;43.408;24.626;2023-04-24T04:21:50;9.00;;;5.57;;
8312;SDS011;4194;43.408;24.626;2023-04-24T04:24:18;12.60;;;7.23;;
8312;SDS011;4194;43.408;24.626;2023-04-24T04:26:45;15.93;;;6.80;;
8312;SDS011;4194;43.408;24.626;2023-04-24T04:29:12;11.20;;;5.90;;
8312;SDS011;4194;43.408;24.626;2023-04-24T04:31:38;10.53;;;6.30;;
8312;SDS011;4194;43.408;24.626;2023-04-24T04:34:04;14.70;;;6.53;;
8312;SDS011;4194;43.408;24.626;2023-04-24T04:36:30;12.53;;;6.23;;
8312;SDS011;4194;43.408;24.626;2023-04-24T04:38:56;9.97;;;5.90;;
8312;SDS011;4194;43.408;24.626;2023-04-24T04:41:24;11.03;;;5.77;;
8312;SDS011;4194;43.408;24.626;2023-04-24T04:43:50;11.27;;;5.70;;
8312;SDS011;4194;43.408;24.626;2023-04-24T04:46:15;10.93;;;6.23;;
8312;SDS011;4194;43.408;24.626;2023-04-24T04:48:41;11.90;;;6.70;;
8312;SDS011;4194;43.408;24.626;2023-04-24T04:51:08;12.50;;;6.10;;
8312;SDS011;4194;43.408;24.626;2023-04-24T04:53:33;9.67;;;5.70;;
8312;SDS011;4194;43.408;24.626;2023-04-24T04:55:59;12.80;;;6.13;;
8312;SDS011;4194;43.408;24.626;2023-04-24T04:58:25;11.27;;;6.33;;
8312;SDS011;4194;43.408;24.626;2023-04-24T05:00:51;12.23;;;6.80;;
8312;SDS011;4194;43.408;24.626;2023-04-24T05:03:17;9.67;;;6.30;;
8312;SDS011;4194;43.408;24.626;2023-04-24T05:05:43;14.17;;;6.40;;
8312;SDS011;4194;43.408;24.626;2023-04-24T05:08:08;12.53;;;6.43;;
8312;SDS011;4194;43.408;24.626;2023-04-24T05:10:34;12.40;;;7.27;;
8312;SDS011;4194;43.408;24.626;2023-04-24T05:13:02;11.10;;;7.27;;
8312;SDS011;4194;43.408;24.626;2023-04-24T05:15:28;11.57;;;7.43;;
8312;SDS011;4194;43.408;24.626;2023-04-24T05:17:55;14.00;;;7.67;;
8312;SDS011;4194;43.408;24.626;2023-04-24T05:20:20;13.00;;;5.63;;
8312;SDS011;4194;43.408;24.626;2023-04-24T05:22:46;6.53;;;5.30;;
8312;SDS011;4194;43.408;24.626;2023-04-24T05:25:12;12.83;;;6.80;;
8312;SDS011;4194;43.408;24.626;2023-04-24T05:27:38;11.77;;;6.10;;
8312;SDS011;4194;43.408;24.626;2023-04-24T05:30:04;9.90;;;5.93;;
8312;SDS011;4194;43.408;24.626;2023-04-24T05:32:30;7.50;;;5.27;;
8312;SDS011;4194;43.408;24.626;2023-04-24T05:34:56;6.53;;;5.07;;
8312;SDS011;4194;43.408;24.626;2023-04-24T05:37:21;9.63;;;5.03;;
8312;SDS011;4194;43.408;24.626;2023-04-24T05:39:47;7.27;;;4.80;;
8312;SDS011;4194;43.408;24.626;2023-04-24T05:42:13;5.70;;;5.00;;
8312;SDS011;4194;43.408;24.626;2023-04-24T05:44:38;5.87;;;4.73;;
8312;SDS011;4194;43.408;24.626;2023-04-24T05:47:04;5.37;;;4.70;;
8312;SDS011;4194;43.408;24.626;2023-04-24T05:49:30;7.20;;;4.03;;
8312;SDS011;4194;43.408;24.626;2023-04-24T05:51:56;6.13;;;4.60;;
8312;SDS011;4194;43.408;24.626;2023-04-24T05:54:22;5.53;;;4.40;;
8312;SDS011;4194;43.408;24.626;2023-04-24T05:56:48;10.03;;;4.90;;
8312;SDS011;4194;43.408;24.626;2023-04-24T05:59:15;23.63;;;4.90;;
8312;SDS011;4194;43.408;24.626;2023-04-24T06:01:41;12.47;;;4.97;;
8312;SDS011;4194;43.408;24.626;2023-04-24T06:04:07;5.43;;;3.97;;
8312;SDS011;4194;43.408;24.626;2023-04-24T06:06:33;6.60;;;4.00;;
8312;SDS011;4194;43.408;24.626;2023-04-24T06:08:59;12.40;;;5.27;;
8312;SDS011;4194;43.408;24.626;2023-04-24T06:11:25;7.60;;;4.10;;
8312;SDS011;4194;43.408;24.626;2023-04-24T06:13:51;12.27;;;5.03;;
8312;SDS011;4194;43.408;24.626;2023-04-24T06:16:17;5.57;;;4.63;;
8312;SDS011;4194;43.408;24.626;2023-04-24T06:18:42;7.57;;;4.60;;
8312;SDS011;4194;43.408;24.626;2023-04-24T06:21:08;5.73;;;4.53;;
8312;SDS011;4194;43.408;24.626;2023-04-24T06:23:34;9.83;;;4.13;;
8312;SDS011;4194;43.408;24.626;2023-04-24T06:25:59;5.20;;;3.83;;
8312;SDS011;4194;43.408;24.626;2023-04-24T06:28:25;5.00;;;4.27;;
8312;SDS011;4194;43.408;24.626;2023-04-24T06:30:51;7.87;;;4.50;;
8312;SDS011;4194;43.408;24.626;2023-04-24T06:33:17;11.27;;;5.40;;
8312;SDS011;4194;43.408;24.626;2023-04-24T06:35:42;7.77;;;5.33;;
8312;SDS011;4194;43.408;24.626;2023-04-24T06:38:08;11.33;;;6.40;;
8312;SDS011;4194;43.408;24.626;2023-04-24T06:40:34;8.33;;;5.57;;
8312;SDS011;4194;43.408;24.626;2023-04-24T06:43:00;5.93;;;5.40;;
8312;SDS011;4194;43.408;24.626;2023-04-24T06:45:27;5.53;;;4.43;;
8312;SDS011;4194;43.408;24.626;2023-04-24T06:47:54;7.27;;;5.23;;
8312;SDS011;4194;43.408;24.626;2023-04-24T06:50:19;14.63;;;6.70;;
8312;SDS011;4194;43.408;24.626;2023-04-24T06:52:45;8.77;;;5.43;;
8312;SDS011;4194;43.408;24.626;2023-04-24T06:55:11;14.83;;;5.57;;
8312;SDS011;4194;43.408;24.626;2023-04-24T06:57:37;8.20;;;5.17;;
8312;SDS011;4194;43.408;24.626;2023-04-24T07:00:04;6.93;;;4.90;;
8312;SDS011;4194;43.408;24.626;2023-04-24T07:02:31;5.20;;;3.87;;
8312;SDS011;4194;43.408;24.626;2023-04-24T07:04:57;6.70;;;3.90;;
8312;SDS011;4194;43.408;24.626;2023-04-24T07:07:23;4.87;;;3.43;;
8312;SDS011;4194;43.408;24.626;2023-04-24T07:09:48;4.33;;;3.10;;
8312;SDS011;4194;43.408;24.626;2023-04-24T07:12:15;3.43;;;2.90;;
8312;SDS011;4194;43.408;24.626;2023-04-24T07:14:42;3.07;;;2.67;;
8312;SDS011;4194;43.408;24.626;2023-04-24T07:17:07;4.17;;;3.20;;
8312;SDS011;4194;43.408;24.626;2023-04-24T07:19:33;4.17;;;3.67;;
8312;SDS011;4194;43.408;24.626;2023-04-24T07:22:02;4.77;;;3.40;;
8312;SDS011;4194;43.408;24.626;2023-04-24T07:24:28;5.93;;;3.30;;
8312;SDS011;4194;43.408;24.626;2023-04-24T07:26:54;5.63;;;3.83;;
8312;SDS011;4194;43.408;24.626;2023-04-24T07:29:20;4.30;;;2.80;;
8312;SDS011;4194;43.408;24.626;2023-04-24T07:31:46;6.27;;;4.13;;
8312;SDS011;4194;43.408;24.626;2023-04-24T07:34:12;7.50;;;3.13;;
8312;SDS011;4194;43.408;24.626;2023-04-24T07:36:37;4.73;;;3.23;;
8312;SDS011;4194;43.408;24.626;2023-04-24T07:39:04;9.03;;;6.00;;
8312;SDS011;4194;43.408;24.626;2023-04-24T07:41:30;9.87;;;7.90;;
8312;SDS011;4194;43.408;24.626;2023-04-24T07:43:56;6.60;;;4.47;;
8312;SDS011;4194;43.408;24.626;2023-04-24T07:46:23;7.97;;;5.40;;
8312;SDS011;4194;43.408;24.626;2023-04-24T07:48:49;4.43;;;4.03;;
8312;SDS011;4194;43.408;24.626;2023-04-24T07:51:15;7.93;;;3.20;;
8312;SDS011;4194;43.408;24.626;2023-04-24T07:53:41;9.03;;;4.10;;
8312;SDS011;4194;43.408;24.626;2023-04-24T07:56:07;4.57;;;3.60;;
8312;SDS011;4194;43.408;24.626;2023-04-24T07:58:33;4.20;;;3.73;;
8312;SDS011;4194;43.408;24.626;2023-04-24T08:01:00;6.27;;;3.90;;
8312;SDS011;4194;43.408;24.626;2023-04-24T08:03:25;4.63;;;3.53;;
8312;SDS011;4194;43.408;24.626;2023-04-24T08:05:51;5.03;;;3.90;;
8312;SDS011;4194;43.408;24.626;2023-04-24T08:08:17;7.73;;;3.90;;
8312;SDS011;4194;43.408;24.626;2023-04-24T08:10:43;6.33;;;3.17;;
8312;SDS011;4194;43.408;24.626;2023-04-24T08:13:08;4.37;;;3.20;;
8312;SDS011;4194;43.408;24.626;2023-04-24T08:15:36;4.53;;;3.10;;
8312;SDS011;4194;43.408;24.626;2023-04-24T08:18:02;3.63;;;3.30;;
8312;SDS011;4194;43.408;24.626;2023-04-24T08:20:28;4.90;;;3.93;;
8312;SDS011;4194;43.408;24.626;2023-04-24T08:22:53;4.23;;;3.70;;
8312;SDS011;4194;43.408;24.626;2023-04-24T08:25:20;6.57;;;4.00;;
8312;SDS011;4194;43.408;24.626;2023-04-24T08:27:48;6.37;;;4.27;;
8312;SDS011;4194;43.408;24.626;2023-04-24T08:30:14;8.07;;;4.97;;
8312;SDS011;4194;43.408;24.626;2023-04-24T08:32:39;6.00;;;5.40;;
8312;SDS011;4194;43.408;24.626;2023-04-24T08:35:05;6.53;;;4.90;;
8312;SDS011;4194;43.408;24.626;2023-04-24T08:37:34;8.10;;;5.13;;
8312;SDS011;4194;43.408;24.626;2023-04-24T08:39:59;5.87;;;5.27;;
8312;SDS011;4194;43.408;24.626;2023-04-24T08:42:26;6.00;;;5.20;;
8312;SDS011;4194;43.408;24.626;2023-04-24T08:44:54;7.13;;;5.07;;
8312;SDS011;4194;43.408;24.626;2023-04-24T08:47:20;6.63;;;4.27;;
8312;SDS011;4194;43.408;24.626;2023-04-24T08:49:47;5.70;;;4.57;;
8312;SDS011;4194;43.408;24.626;2023-04-24T08:52:13;6.50;;;4.27;;
8312;SDS011;4194;43.408;24.626;2023-04-24T08:54:41;4.60;;;4.20;;
8312;SDS011;4194;43.408;24.626;2023-04-24T08:57:10;8.13;;;4.93;;
8312;SDS011;4194;43.408;24.626;2023-04-24T08:59:39;5.60;;;4.73;;
8312;SDS011;4194;43.408;24.626;2023-04-24T09:02:05;5.90;;;4.60;;
8312;SDS011;4194;43.408;24.626;2023-04-24T09:04:34;6.13;;;4.00;;
8312;SDS011;4194;43.408;24.626;2023-04-24T09:07:00;5.00;;;4.00;;
8312;SDS011;4194;43.408;24.626;2023-04-24T09:09:30;5.87;;;4.10;;
8312;SDS011;4194;43.408;24.626;2023-04-24T09:11:57;5.93;;;3.93;;
8312;SDS011;4194;43.408;24.626;2023-04-24T09:14:23;6.80;;;3.83;;
8312;SDS011;4194;43.408;24.626;2023-04-24T09:16:50;8.43;;;5.20;;
8312;SDS011;4194;43.408;24.626;2023-04-24T09:19:15;7.60;;;4.83;;
8312;SDS011;4194;43.408;24.626;2023-04-24T09:21:41;5.97;;;4.73;;
8312;SDS011;4194;43.408;24.626;2023-04-24T09:24:15;8.67;;;4.70;;
8312;SDS011;4194;43.408;24.626;2023-04-24T09:26:47;7.90;;;5.20;;
8312;SDS011;4194;43.408;24.626;2023-04-24T09:29:15;7.33;;;4.73;;
8312;SDS011;4194;43.408;24.626;2023-04-24T09:31:42;9.67;;;5.07;;
8312;SDS011;4194;43.408;24.626;2023-04-24T09:34:08;5.30;;;4.80;;
8312;SDS011;4194;43.408;24.626;2023-04-24T09:39:03;5.60;;;4.70;;
8312;SDS011;4194;43.408;24.626;2023-04-24T09:41:31;5.13;;;4.10;;
8312;SDS011;4194;43.408;24.626;2023-04-24T09:44:10;9.20;;;4.23;;
8312;SDS011;4194;43.408;24.626;2023-04-24T09:46:41;4.83;;;4.07;;
8312;SDS011;4194;43.408;24.626;2023-04-24T09:49:12;5.97;;;4.22;;
8312;SDS011;4194;43.408;24.626;2023-04-24T09:51:40;7.17;;;4.87;;
8312;SDS011;4194;43.408;24.626;2023-04-24T09:54:19;9.07;;;4.93;;
8312;SDS011;4194;43.408;24.626;2023-04-24T09:56:46;10.00;;;4.67;;
8312;SDS011;4194;43.408;24.626;2023-04-24T09:59:15;4.27;;;3.87;;
8312;SDS011;4194;43.408;24.626;2023-04-24T10:01:41;5.73;;;3.60;;
8312;SDS011;4194;43.408;24.626;2023-04-24T10:04:22;4.00;;;3.20;;
8312;SDS011;4194;43.408;24.626;2023-04-24T10:06:50;5.23;;;3.33;;
8312;SDS011;4194;43.408;24.626;2023-04-24T10:09:21;3.40;;;3.07;;
8312;SDS011;4194;43.408;24.626;2023-04-24T10:11:51;6.87;;;3.40;;
8312;SDS011;4194;43.408;24.626;2023-04-24T10:14:22;3.93;;;3.23;;
8312;SDS011;4194;43.408;24.626;2023-04-24T10:16:49;7.37;;;2.90;;
8312;SDS011;4194;43.408;24.626;2023-04-24T10:19:16;2.90;;;2.43;;
8312;SDS011;4194;43.408;24.626;2023-04-24T10:21:45;5.17;;;2.87;;
8312;SDS011;4194;43.408;24.626;2023-04-24T10:24:15;5.47;;;3.33;;
8312;SDS011;4194;43.408;24.626;2023-04-24T10:26:42;3.77;;;2.63;;
8312;SDS011;4194;43.408;24.626;2023-04-24T10:29:10;4.20;;;2.80;;
8312;SDS011;4194;43.408;24.626;2023-04-24T10:31:37;3.73;;;3.17;;
8312;SDS011;4194;43.408;24.626;2023-04-24T10:34:07;6.23;;;3.03;;
8312;SDS011;4194;43.408;24.626;2023-04-24T10:36:34;3.37;;;3.07;;
8312;SDS011;4194;43.408;24.626;2023-04-24T10:39:06;6.23;;;3.03;;
8312;SDS011;4194;43.408;24.626;2023-04-24T10:41:36;6.57;;;2.70;;
8312;SDS011;4194;43.408;24.626;2023-04-24T10:44:06;3.77;;;3.10;;
8312;SDS011;4194;43.408;24.626;2023-04-24T10:46:37;5.40;;;3.43;;
8312;SDS011;4194;43.408;24.626;2023-04-24T10:49:07;5.10;;;2.90;;
8312;SDS011;4194;43.408;24.626;2023-04-24T10:59:48;3.33;;;2.80;;
8312;SDS011;4194;43.408;24.626;2023-04-24T11:02:15;2.93;;;2.70;;
8312;SDS011;4194;43.408;24.626;2023-04-24T11:04:43;5.00;;;2.90;;
8312;SDS011;4194;43.408;24.626;2023-04-24T11:07:09;4.60;;;2.97;;
8312;SDS011;4194;43.408;24.626;2023-04-24T11:09:36;3.13;;;2.50;;
8312;SDS011;4194;43.408;24.626;2023-04-24T11:12:08;3.47;;;2.50;;
8312;SDS011;4194;43.408;24.626;2023-04-24T11:17:53;6.27;;;2.70;;
8312;SDS011;4194;43.408;24.626;2023-04-24T11:20:16;6.40;;;2.70;;
8312;SDS011;4194;43.408;24.626;2023-04-24T11:22:42;3.33;;;2.60;;
8312;SDS011;4194;43.408;24.626;2023-04-24T11:25:08;5.83;;;2.80;;
8312;SDS011;4194;43.408;24.626;2023-04-24T11:30:07;4.73;;;2.30;;
8312;SDS011;4194;43.408;24.626;2023-04-24T11:32:40;3.00;;;2.10;;
8312;SDS011;4194;43.408;24.626;2023-04-24T11:37:44;2.70;;;2.47;;
8312;SDS011;4194;43.408;24.626;2023-04-24T11:40:14;2.93;;;2.53;;
8312;SDS011;4194;43.408;24.626;2023-04-24T11:42:42;5.07;;;3.03;;
8312;SDS011;4194;43.408;24.626;2023-04-24T11:45:16;3.40;;;2.30;;
8312;SDS011;4194;43.408;24.626;2023-04-24T11:47:48;2.30;;;2.10;;
8312;SDS011;4194;43.408;24.626;2023-04-24T11:50:16;2.73;;;2.53;;
8312;SDS011;4194;43.408;24.626;2023-04-24T11:52:43;2.27;;;1.93;;
8312;SDS011;4194;43.408;24.626;2023-04-24T11:55:31;4.23;;;2.60;;
8312;SDS011;4194;43.408;24.626;2023-04-24T11:57:57;3.63;;;2.20;;
8312;SDS011;4194;43.408;24.626;2023-04-24T12:03:07;4.10;;;2.33;;
8312;SDS011;4194;43.408;24.626;2023-04-24T12:05:36;5.83;;;2.77;;
8312;SDS011;4194;43.408;24.626;2023-04-24T12:08:03;5.43;;;2.40;;
8312;SDS011;4194;43.408;24.626;2023-04-24T12:10:30;3.08;;;2.20;;
8312;SDS011;4194;43.408;24.626;2023-04-24T12:12:58;3.83;;;2.70;;
8312;SDS011;4194;43.408;24.626;2023-04-24T12:15:25;3.17;;;2.20;;
8312;SDS011;4194;43.408;24.626;2023-04-24T12:17:51;6.20;;;2.50;;
8312;SDS011;4194;43.408;24.626;2023-04-24T12:20:23;3.90;;;2.33;;
8312;SDS011;4194;43.408;24.626;2023-04-24T12:22:51;5.63;;;2.40;;
8312;SDS011;4194;43.408;24.626;2023-04-24T12:25:24;2.37;;;2.17;;
8312;SDS011;4194;43.408;24.626;2023-04-24T12:27:52;2.67;;;2.47;;
8312;SDS011;4194;43.408;24.626;2023-04-24T12:30:28;4.73;;;2.47;;
8312;SDS011;4194;43.408;24.626;2023-04-24T12:32:56;4.57;;;2.40;;
8312;SDS011;4194;43.408;24.626;2023-04-24T12:35:26;3.57;;;2.30;;
8312;SDS011;4194;43.408;24.626;2023-04-24T12:37:53;3.73;;;2.30;;
8312;SDS011;4194;43.408;24.626;2023-04-24T12:40:20;3.47;;;2.80;;
8312;SDS011;4194;43.408;24.626;2023-04-24T12:42:49;2.80;;;1.90;;
8312;SDS011;4194;43.408;24.626;2023-04-24T12:45:16;3.23;;;2.73;;
8312;SDS011;4194;43.408;24.626;2023-04-24T12:47:43;5.33;;;2.73;;
8312;SDS011;4194;43.408;24.626;2023-04-24T12:50:11;3.77;;;2.70;;
8312;SDS011;4194;43.408;24.626;2023-04-24T12:52:38;4.17;;;2.20;;
8312;SDS011;4194;43.408;24.626;2023-04-24T12:55:05;5.53;;;3.00;;
8312;SDS011;4194;43.408;24.626;2023-04-24T12:57:33;3.57;;;2.53;;
8312;SDS011;4194;43.408;24.626;2023-04-24T13:00:00;2.40;;;2.20;;
8312;SDS011;4194;43.408;24.626;2023-04-24T13:02:27;9.37;;;2.63;;
8312;SDS011;4194;43.408;24.626;2023-04-24T13:04:55;3.97;;;2.67;;
8312;SDS011;4194;43.408;24.626;2023-04-24T13:07:21;4.30;;;2.47;;
8312;SDS011;4194;43.408;24.626;2023-04-24T13:09:47;3.30;;;2.03;;
8312;SDS011;4194;43.408;24.626;2023-04-24T13:12:14;2.03;;;1.93;;
8312;SDS011;4194;43.408;24.626;2023-04-24T13:14:40;4.38;;;1.98;;
8312;SDS011;4194;43.408;24.626;2023-04-24T13:17:06;3.05;;;1.85;;
8312;SDS011;4194;43.408;24.626;2023-04-24T13:19:39;3.65;;;2.13;;
8312;SDS011;4194;43.408;24.626;2023-04-24T13:22:06;3.45;;;2.05;;
8312;SDS011;4194;43.408;24.626;2023-04-24T13:24:34;3.80;;;2.08;;
8312;SDS011;4194;43.408;24.626;2023-04-24T13:27:00;7.47;;;2.35;;
8312;SDS011;4194;43.408;24.626;2023-04-24T13:29:25;5.97;;;2.67;;
8312;SDS011;4194;43.408;24.626;2023-04-24T13:31:52;3.03;;;2.45;;
8312;SDS011;4194;43.408;24.626;2023-04-24T13:34:20;2.85;;;2.55;;
8312;SDS011;4194;43.408;24.626;2023-04-24T13:36:47;3.42;;;2.47;;
8312;SDS011;4194;43.408;24.626;2023-04-24T13:39:12;3.42;;;2.65;;
8312;SDS011;4194;43.408;24.626;2023-04-24T13:41:38;8.65;;;2.90;;
8312;SDS011;4194;43.408;24.626;2023-04-24T13:44:05;4.63;;;2.90;;
8312;SDS011;4194;43.408;24.626;2023-04-24T13:46:31;3.10;;;2.73;;
8312;SDS011;4194;43.408;24.626;2023-04-24T13:48:57;5.17;;;2.60;;
8312;SDS011;4194;43.408;24.626;2023-04-24T13:51:24;4.23;;;2.93;;
8312;SDS011;4194;43.408;24.626;2023-04-24T13:53:52;4.17;;;2.60;;
8312;SDS011;4194;43.408;24.626;2023-04-24T13:56:18;6.27;;;2.57;;
8312;SDS011;4194;43.408;24.626;2023-04-24T13:58:43;4.80;;;2.72;;
8312;SDS011;4194;43.408;24.626;2023-04-24T14:01:09;5.60;;;2.55;;
8312;SDS011;4194;43.408;24.626;2023-04-24T14:03:36;3.27;;;2.67;;
8312;SDS011;4194;43.408;24.626;2023-04-24T14:06:02;4.18;;;2.40;;
8312;SDS011;4194;43.408;24.626;2023-04-24T14:08:28;4.53;;;2.73;;
8312;SDS011;4194;43.408;24.626;2023-04-24T14:10:54;4.90;;;2.67;;
8312;SDS011;4194;43.408;24.626;2023-04-24T14:13:19;4.83;;;2.23;;
8312;SDS011;4194;43.408;24.626;2023-04-24T14:15:46;2.53;;;2.33;;
8312;SDS011;4194;43.408;24.626;2023-04-24T14:18:11;4.43;;;2.67;;
8312;SDS011;4194;43.408;24.626;2023-04-24T14:20:37;6.03;;;2.80;;
8312;SDS011;4194;43.408;24.626;2023-04-24T14:23:03;5.80;;;2.93;;
8312;SDS011;4194;43.408;24.626;2023-04-24T14:25:29;4.03;;;2.63;;
8312;SDS011;4194;43.408;24.626;2023-04-24T14:27:55;3.60;;;3.30;;
8312;SDS011;4194;43.408;24.626;2023-04-24T14:30:21;4.13;;;2.70;;
8312;SDS011;4194;43.408;24.626;2023-04-24T14:32:47;3.53;;;3.10;;
8312;SDS011;4194;43.408;24.626;2023-04-24T14:35:13;5.40;;;2.90;;
8312;SDS011;4194;43.408;24.626;2023-04-24T14:37:39;4.00;;;2.87;;
8312;SDS011;4194;43.408;24.626;2023-04-24T14:40:06;6.00;;;3.13;;
8312;SDS011;4194;43.408;24.626;2023-04-24T14:42:33;4.40;;;3.20;;
8312;SDS011;4194;43.408;24.626;2023-04-24T14:44:59;3.47;;;3.20;;
8312;SDS011;4194;43.408;24.626;2023-04-24T14:47:25;6.30;;;2.87;;
8312;SDS011;4194;43.408;24.626;2023-04-24T14:49:50;3.27;;;2.97;;
8312;SDS011;4194;43.408;24.626;2023-04-24T14:52:16;3.27;;;2.60;;
8312;SDS011;4194;43.408;24.626;2023-04-24T14:54:42;3.97;;;3.00;;
8312;SDS011;4194;43.408;24.626;2023-04-24T14:57:08;3.40;;;3.07;;
8312;SDS011;4194;43.408;24.626;2023-04-24T14:59:34;6.30;;;3.10;;
8312;SDS011;4194;43.408;24.626;2023-04-24T15:02:00;3.77;;;2.90;;
8312;SDS011;4194;43.408;24.626;2023-04-24T15:04:27;3.10;;;2.83;;
8312;SDS011;4194;43.408;24.626;2023-04-24T15:06:53;5.13;;;3.07;;
8312;SDS011;4194;43.408;24.626;2023-04-24T15:09:20;4.47;;;3.07;;
8312;SDS011;4194;43.408;24.626;2023-04-24T15:11:47;4.37;;;2.97;;
8312;SDS011;4194;43.408;24.626;2023-04-24T15:14:14;4.70;;;3.30;;
8312;SDS011;4194;43.408;24.626;2023-04-24T15:16:40;6.17;;;3.40;;
8312;SDS011;4194;43.408;24.626;2023-04-24T15:19:06;3.40;;;3.10;;